sensor_id;sensor_type;location;lat;lon;timestamp;pressure;altitude;pressure_sealevel;temperature;humidity
7297;BME280;40758;54.038;11.684;2023-02-04T00:00:51;102363.66;;;2.47;100.00
7297;BME280;40758;54.038;11.684;2023-02-04T00:03:19;102361.84;;;2.49;100.00
7297;BME280;40758;54.038;11.684;2023-02-04T00:05:49;102372.59;;;2.43;100.00
7297;BME280;40758;54.038;11.684;2023-02-04T00:08:18;102372.69;;;2.40;100.00
7297;BME280;40758;54.038;11.684;2023-02-04T00:10:46;102393.19;;;2.32;100.00
7297;BME280;40758;54.038;11.684;2023-02-04T00:13:15;102395.84;;;2.32;100.00
7297;BME280;40758;54.038;11.684;2023-02-04T00:15:43;102396.72;;;2.32;100.00
7297;BME280;40758;54.038;11.684;2023-02-04T00:18:11;102418.88;;;2.30;100.00
7297;BME280;40758;54.038;11.684;2023-02-04T00:20:40;102409.81;;;2.40;100.00
7297;BME280;40758;54.038;11.684;2023-02-04T00:23:09;102414.16;;;2.42;100.00
7297;BME280;40758;54.038;11.684;2023-02-04T00:25:38;102415.91;;;2.43;100.00
7297;BME280;40758;54.038;11.684;2023-02-04T00:28:06;102424.00;;;2.37;100.00
7297;BME280;40758;54.038;11.684;2023-02-04T00:30:35;102421.38;;;2.37;100.00
7297;BME280;40758;54.038;11.684;2023-02-04T00:33:03;102433.75;;;2.37;100.00
7297;BME280;40758;54.038;11.684;2023-02-04T00:35:31;102439.00;;;2.40;100.00
7297;BME280;40758;54.038;11.684;2023-02-04T00:38:00;102446.03;;;2.41;100.00
7297;BME280;40758;54.038;11.684;2023-02-04T00:40:30;102461.13;;;2.39;100.00
7297;BME280;40758;54.038;11.684;2023-02-04T00:42:58;102471.66;;;2.42;100.00
7297;BME280;40758;54.038;11.684;2023-02-04T00:45:27;102478.72;;;2.41;100.00
7297;BME280;40758;54.038;11.684;2023-02-04T00:47:55;102479.69;;;2.39;100.00
7297;BME280;40758;54.038;11.684;2023-02-04T00:50:24;102484.88;;;2.43;100.00
7297;BME280;40758;54.038;11.684;2023-02-04T00:52:52;102491.06;;;2.44;100.00
7297;BME280;40758;54.038;11.684;2023-02-04T00:55:21;102497.34;;;2.40;100.00
7297;BME280;40758;54.038;11.684;2023-02-04T00:57:50;102508.91;;;2.36;100.00
7297;BME280;40758;54.038;11.684;2023-02-04T01:00:19;102513.22;;;2.41;100.00
7297;BME280;40758;54.038;11.684;2023-02-04T01:02:48;102517.53;;;2.47;100.00
7297;BME280;40758;54.038;11.684;2023-02-04T01:05:16;102517.47;;;2.50;100.00
7297;BME280;40758;54.038;11.684;2023-02-04T01:07:46;102522.78;;;2.50;100.00
7297;BME280;40758;54.038;11.684;2023-02-04T01:10:15;102524.56;;;2.48;100.00
7297;BME280;40758;54.038;11.684;2023-02-04T01:12:44;102530.06;;;2.40;100.00
7297;BME280;40758;54.038;11.684;2023-02-04T01:15:14;102532.66;;;2.42;100.00
7297;BME280;40758;54.038;11.684;2023-02-04T01:17:42;102540.75;;;2.36;100.00
7297;BME280;40758;54.038;11.684;2023-02-04T01:20:11;102524.91;;;2.33;100.00
7297;BME280;40758;54.038;11.684;2023-02-04T01:22:40;102542.50;;;2.37;100.00
7297;BME280;40758;54.038;11.684;2023-02-04T01:25:09;102555.88;;;2.31;100.00
7297;BME280;40758;54.038;11.684;2023-02-04T01:27:40;102571.03;;;2.26;100.00
7297;BME280;40758;54.038;11.684;2023-02-04T01:30:13;102573.06;;;2.12;100.00
7297;BME280;40758;54.038;11.684;2023-02-04T01:32:43;102579.34;;;2.08;100.00
7297;BME280;40758;54.038;11.684;2023-02-04T01:35:11;102586.38;;;2.09;100.00
7297;BME280;40758;54.038;11.684;2023-02-04T01:37:39;102585.50;;;2.10;100.00
7297;BME280;40758;54.038;11.684;2023-02-04T01:40:10;102590.84;;;2.05;100.00
7297;BME280;40758;54.038;11.684;2023-02-04T01:42:39;102590.84;;;2.07;100.00
7297;BME280;40758;54.038;11.684;2023-02-04T01:45:09;102599.69;;;2.06;100.00
7297;BME280;40758;54.038;11.684;2023-02-04T01:47:39;102598.78;;;2.07;100.00
7297;BME280;40758;54.038;11.684;2023-02-04T01:50:12;102606.75;;;2.07;100.00
7297;BME280;40758;54.038;11.684;2023-02-04T01:52:43;102615.47;;;2.12;100.00
7297;BME280;40758;54.038;11.684;2023-02-04T01:55:15;102625.97;;;2.18;100.00
7297;BME280;40758;54.038;11.684;2023-02-04T01:57:45;102631.25;;;2.19;100.00
7297;BME280;40758;54.038;11.684;2023-02-04T02:00:26;102631.28;;;2.18;100.00
7297;BME280;40758;54.038;11.684;2023-02-04T02:02:57;102641.00;;;2.19;100.00
7297;BME280;40758;54.038;11.684;2023-02-04T02:05:30;102646.31;;;2.17;100.00
7297;BME280;40758;54.038;11.684;2023-02-04T02:08:02;102649.84;;;2.18;100.00
7297;BME280;40758;54.038;11.684;2023-02-04T02:10:32;102657.78;;;2.18;100.00
7297;BME280;40758;54.038;11.684;2023-02-04T02:13:03;102667.53;;;2.17;100.00
7297;BME280;40758;54.038;11.684;2023-02-04T02:15:32;102669.25;;;2.20;100.00
7297;BME280;40758;54.038;11.684;2023-02-04T02:18:03;102671.06;;;2.18;100.00
7297;BME280;40758;54.038;11.684;2023-02-04T02:20:31;102678.97;;;2.21;100.00
7297;BME280;40758;54.038;11.684;2023-02-04T02:23:05;102688.63;;;2.23;100.00
7297;BME280;40758;54.038;11.684;2023-02-04T02:25:41;102697.50;;;2.22;100.00
7297;BME280;40758;54.038;11.684;2023-02-04T02:28:15;102701.78;;;2.31;100.00
7297;BME280;40758;54.038;11.684;2023-02-04T02:30:46;102715.00;;;2.32;100.00
7297;BME280;40758;54.038;11.684;2023-02-04T02:33:18;102715.00;;;2.32;100.00
7297;BME280;40758;54.038;11.684;2023-02-04T02:35:48;102720.28;;;2.34;100.00
7297;BME280;40758;54.038;11.684;2023-02-04T02:38:18;102728.38;;;2.28;100.00
7297;BME280;40758;54.038;11.684;2023-02-04T02:40:49;102726.53;;;2.30;100.00
7297;BME280;40758;54.038;11.684;2023-02-04T02:43:22;102729.19;;;2.30;100.00
7297;BME280;40758;54.038;11.684;2023-02-04T02:45:54;102736.38;;;2.23;100.00
7297;BME280;40758;54.038;11.684;2023-02-04T02:48:24;102737.25;;;2.24;100.00
7297;BME280;40758;54.038;11.684;2023-02-04T02:50:52;102746.16;;;2.20;100.00
7297;BME280;40758;54.038;11.684;2023-02-04T02:53:21;102739.19;;;2.14;100.00
7297;BME280;40758;54.038;11.684;2023-02-04T02:55:51;102746.19;;;2.17;100.00
7297;BME280;40758;54.038;11.684;2023-02-04T02:58:24;102756.69;;;2.24;100.00
7297;BME280;40758;54.038;11.684;2023-02-04T03:00:54;102758.53;;;2.21;100.00
7297;BME280;40758;54.038;11.684;2023-02-04T03:03:26;102769.25;;;2.15;100.00
7297;BME280;40758;54.038;11.684;2023-02-04T03:06:00;102766.53;;;2.16;100.00
7297;BME280;40758;54.038;11.684;2023-02-04T03:08:29;102772.78;;;2.14;100.00
7297;BME280;40758;54.038;11.684;2023-02-04T03:10:59;102773.69;;;2.13;100.00
7297;BME280;40758;54.038;11.684;2023-02-04T03:13:27;102772.88;;;2.08;100.00
7297;BME280;40758;54.038;11.684;2023-02-04T03:15:57;102776.50;;;2.03;100.00
7297;BME280;40758;54.038;11.684;2023-02-04T03:18:26;102783.59;;;2.01;100.00
7297;BME280;40758;54.038;11.684;2023-02-04T03:20:55;102785.34;;;2.02;100.00
7297;BME280;40758;54.038;11.684;2023-02-04T03:23:23;102794.22;;;1.98;100.00
7297;BME280;40758;54.038;11.684;2023-02-04T03:25:53;102806.66;;;1.93;100.00
7297;BME280;40758;54.038;11.684;2023-02-04T03:28:23;102806.75;;;1.87;100.00
7297;BME280;40758;54.038;11.684;2023-02-04T03:30:51;102829.78;;;1.84;100.00
7297;BME280;40758;54.038;11.684;2023-02-04T03:33:23;102838.66;;;1.81;100.00
7297;BME280;40758;54.038;11.684;2023-02-04T03:35:52;102846.63;;;1.80;100.00
7297;BME280;40758;54.038;11.684;2023-02-04T03:38:20;102839.66;;;1.73;100.00
7297;BME280;40758;54.038;11.684;2023-02-04T03:40:49;102847.50;;;1.80;100.00
7297;BME280;40758;54.038;11.684;2023-02-04T03:43:17;102854.56;;;1.80;100.00
7297;BME280;40758;54.038;11.684;2023-02-04T03:45:47;102859.03;;;1.78;100.00
7297;BME280;40758;54.038;11.684;2023-02-04T03:48:15;102857.25;;;1.78;100.00
7297;BME280;40758;54.038;11.684;2023-02-04T03:50:44;102863.53;;;1.73;100.00
7297;BME280;40758;54.038;11.684;2023-02-04T03:53:12;102874.94;;;1.76;100.00
7297;BME280;40758;54.038;11.684;2023-02-04T03:55:42;102870.59;;;1.69;100.00
7297;BME280;40758;54.038;11.684;2023-02-04T03:58:10;102874.22;;;1.65;100.00
7297;BME280;40758;54.038;11.684;2023-02-04T04:00:38;102875.91;;;1.69;100.00
7297;BME280;40758;54.038;11.684;2023-02-04T04:03:08;102883.03;;;1.64;100.00
7297;BME280;40758;54.038;11.684;2023-02-04T04:05:37;102891.06;;;1.59;100.00
7297;BME280;40758;54.038;11.684;2023-02-04T04:08:05;102893.78;;;1.52;100.00
7297;BME280;40758;54.038;11.684;2023-02-04T04:10:33;102900.88;;;1.50;100.00
7297;BME280;40758;54.038;11.684;2023-02-04T04:13:02;102916.88;;;1.38;100.00
7297;BME280;40758;54.038;11.684;2023-02-04T04:15:31;102924.00;;;1.33;100.00
7297;BME280;40758;54.038;11.684;2023-02-04T04:18:01;102928.47;;;1.28;100.00
7297;BME280;40758;54.038;11.684;2023-02-04T04:20:31;102933.78;;;1.28;100.00
7297;BME280;40758;54.038;11.684;2023-02-04T04:23:00;102940.84;;;1.29;100.00
7297;BME280;40758;54.038;11.684;2023-02-04T04:25:29;102953.25;;;1.22;100.00
7297;BME280;40758;54.038;11.684;2023-02-04T04:27:57;102966.56;;;1.13;100.00
7297;BME280;40758;54.038;11.684;2023-02-04T04:30:25;102960.41;;;1.11;100.00
7297;BME280;40758;54.038;11.684;2023-02-04T04:32:54;102970.25;;;0.95;100.00
7297;BME280;40758;54.038;11.684;2023-02-04T04:35:22;102981.78;;;0.85;100.00
7297;BME280;40758;54.038;11.684;2023-02-04T04:37:53;102980.13;;;0.73;100.00
7297;BME280;40758;54.038;11.684;2023-02-04T04:40:21;102977.50;;;0.66;100.00
7297;BME280;40758;54.038;11.684;2023-02-04T04:42:49;102993.38;;;0.63;100.00
7297;BME280;40758;54.038;11.684;2023-02-04T04:45:20;102999.59;;;0.56;100.00
7297;BME280;40758;54.038;11.684;2023-02-04T04:47:49;103010.19;;;0.60;100.00
7297;BME280;40758;54.038;11.684;2023-02-04T04:50:17;103019.00;;;0.58;100.00
7297;BME280;40758;54.038;11.684;2023-02-04T04:52:46;103027.03;;;0.39;100.00
7297;BME280;40758;54.038;11.684;2023-02-04T04:55:16;103027.09;;;0.21;100.00
7297;BME280;40758;54.038;11.684;2023-02-04T04:57:45;103027.19;;;0.06;100.00
7297;BME280;40758;54.038;11.684;2023-02-04T05:00:16;103033.41;;;-0.13;100.00
7297;BME280;40758;54.038;11.684;2023-02-04T05:02:45;103046.63;;;-0.25;100.00
7297;BME280;40758;54.038;11.684;2023-02-04T05:05:14;103052.78;;;-0.37;100.00
7297;BME280;40758;54.038;11.684;2023-02-04T05:07:42;103060.72;;;-0.42;100.00
7297;BME280;40758;54.038;11.684;2023-02-04T05:10:10;103058.09;;;-0.64;100.00
7297;BME280;40758;54.038;11.684;2023-02-04T05:12:41;103072.19;;;-0.80;100.00
7297;BME280;40758;54.038;11.684;2023-02-04T05:15:11;103074.78;;;-0.96;100.00
7297;BME280;40758;54.038;11.684;2023-02-04T05:17:39;103080.91;;;-1.04;100.00
7297;BME280;40758;54.038;11.684;2023-02-04T05:20:09;103078.31;;;-0.95;100.00
7297;BME280;40758;54.038;11.684;2023-02-04T05:22:37;103088.84;;;-1.07;100.00
7297;BME280;40758;54.038;11.684;2023-02-04T05:25:06;103088.75;;;-1.29;100.00
7297;BME280;40758;54.038;11.684;2023-02-04T05:27:35;103089.59;;;-1.45;100.00
7297;BME280;40758;54.038;11.684;2023-02-04T05:30:05;103093.94;;;-1.56;100.00
7297;BME280;40758;54.038;11.684;2023-02-04T05:32:34;103095.72;;;-1.55;100.00
7297;BME280;40758;54.038;11.684;2023-02-04T05:35:03;103095.78;;;-1.34;100.00
7297;BME280;40758;54.038;11.684;2023-02-04T05:37:31;103084.34;;;-1.40;100.00
7297;BME280;40758;54.038;11.684;2023-02-04T05:40:00;103086.97;;;-1.36;100.00
7297;BME280;40758;54.038;11.684;2023-02-04T05:42:28;103087.81;;;-1.50;100.00
7297;BME280;40758;54.038;11.684;2023-02-04T05:44:57;103095.69;;;-1.61;100.00
7297;BME280;40758;54.038;11.684;2023-02-04T05:47:26;103095.63;;;-1.70;100.00
7297;BME280;40758;54.038;11.684;2023-02-04T05:49:56;103097.31;;;-1.87;100.00
7297;BME280;40758;54.038;11.684;2023-02-04T05:52:24;103104.19;;;-2.11;100.00
7297;BME280;40758;54.038;11.684;2023-02-04T05:54:52;103099.69;;;-2.25;100.00
7297;BME280;40758;54.038;11.684;2023-02-04T05:57:21;103097.81;;;-2.41;100.00
7297;BME280;40758;54.038;11.684;2023-02-04T05:59:49;103104.78;;;-2.48;100.00
7297;BME280;40758;54.038;11.684;2023-02-04T06:02:18;103104.78;;;-2.45;100.00
7297;BME280;40758;54.038;11.684;2023-02-04T06:04:48;103116.22;;;-2.45;100.00
7297;BME280;40758;54.038;11.684;2023-02-04T06:07:16;103131.16;;;-2.40;100.00
7297;BME280;40758;54.038;11.684;2023-02-04T06:09:44;103128.53;;;-2.39;100.00
7297;BME280;40758;54.038;11.684;2023-02-04T06:12:13;103140.84;;;-2.38;100.00
7297;BME280;40758;54.038;11.684;2023-02-04T06:14:41;103139.88;;;-2.46;100.00
7297;BME280;40758;54.038;11.684;2023-02-04T06:17:09;103156.56;;;-2.47;100.00
7297;BME280;40758;54.038;11.684;2023-02-04T06:19:38;103162.63;;;-2.56;100.00
7297;BME280;40758;54.038;11.684;2023-02-04T06:22:07;103168.69;;;-2.61;100.00
7297;BME280;40758;54.038;11.684;2023-02-04T06:24:36;103170.41;;;-2.66;100.00
7297;BME280;40758;54.038;11.684;2023-02-04T06:27:04;103181.00;;;-2.57;100.00
7297;BME280;40758;54.038;11.684;2023-02-04T06:29:32;103186.41;;;-2.45;100.00
7297;BME280;40758;54.038;11.684;2023-02-04T06:32:01;103185.69;;;-2.29;100.00
7297;BME280;40758;54.038;11.684;2023-02-04T06:34:30;103195.41;;;-2.19;100.00
7297;BME280;40758;54.038;11.684;2023-02-04T06:36:59;103203.34;;;-2.16;100.00
7297;BME280;40758;54.038;11.684;2023-02-04T06:39:29;103209.50;;;-2.14;100.00
7297;BME280;40758;54.038;11.684;2023-02-04T06:41:57;103207.84;;;-2.03;100.00
7297;BME280;40758;54.038;11.684;2023-02-04T06:44:26;103215.81;;;-1.95;100.00
7297;BME280;40758;54.038;11.684;2023-02-04T06:46:54;103222.03;;;-1.87;100.00
7297;BME280;40758;54.038;11.684;2023-02-04T06:49:23;103223.72;;;-1.93;100.00
7297;BME280;40758;54.038;11.684;2023-02-04T06:51:52;103230.69;;;-2.01;100.00
7297;BME280;40758;54.038;11.684;2023-02-04T06:54:21;103233.28;;;-2.06;100.00
7297;BME280;40758;54.038;11.684;2023-02-04T06:56:52;103250.88;;;-2.00;100.00
7297;BME280;40758;54.038;11.684;2023-02-04T06:59:20;103250.03;;;-1.98;100.00
7297;BME280;40758;54.038;11.684;2023-02-04T07:01:51;103257.06;;;-1.95;100.00
7297;BME280;40758;54.038;11.684;2023-02-04T07:04:19;103251.81;;;-1.95;100.00
7297;BME280;40758;54.038;11.684;2023-02-04T07:06:48;103265.97;;;-1.86;100.00
7297;BME280;40758;54.038;11.684;2023-02-04T07:09:17;103269.41;;;-1.93;100.00
7297;BME280;40758;54.038;11.684;2023-02-04T07:11:45;103285.19;;;-1.94;100.00
7297;BME280;40758;54.038;11.684;2023-02-04T07:14:15;103285.25;;;-1.91;100.00
7297;BME280;40758;54.038;11.684;2023-02-04T07:16:45;103291.38;;;-1.89;100.00
7297;BME280;40758;54.038;11.684;2023-02-04T07:19:13;103291.44;;;-1.82;100.00
7297;BME280;40758;54.038;11.684;2023-02-04T07:21:42;103299.47;;;-1.68;100.00
7297;BME280;40758;54.038;11.684;2023-02-04T07:24:11;103296.06;;;-1.55;100.00
7297;BME280;40758;54.038;11.684;2023-02-04T07:26:39;103303.19;;;-1.42;100.00
7297;BME280;40758;54.038;11.684;2023-02-04T07:29:08;103303.28;;;-1.27;100.00
7297;BME280;40758;54.038;11.684;2023-02-04T07:31:48;103306.91;;;-1.12;100.00
7297;BME280;40758;54.038;11.684;2023-02-04T07:34:19;103313.13;;;-0.98;100.00
7297;BME280;40758;54.038;11.684;2023-02-04T07:36:48;103312.31;;;-0.85;100.00
7297;BME280;40758;54.038;11.684;2023-02-04T07:39:18;103319.47;;;-0.66;100.00
7297;BME280;40758;54.038;11.684;2023-02-04T07:41:46;103326.56;;;-0.47;100.00
7297;BME280;40758;54.038;11.684;2023-02-04T07:44:16;103327.50;;;-0.34;100.00
7297;BME280;40758;54.038;11.684;2023-02-04T07:46:45;103342.50;;;-0.22;100.00
7297;BME280;40758;54.038;11.684;2023-02-04T07:49:14;103340.75;;;-0.11;100.00
7297;BME280;40758;54.038;11.684;2023-02-04T07:51:43;103353.13;;;-0.04;100.00
7297;BME280;40758;54.038;11.684;2023-02-04T07:54:11;103349.63;;;0.06;100.00
7297;BME280;40758;54.038;11.684;2023-02-04T07:56:41;103352.28;;;0.20;100.00
7297;BME280;40758;54.038;11.684;2023-02-04T07:59:09;103354.06;;;0.31;100.00
7297;BME280;40758;54.038;11.684;2023-02-04T08:01:37;103344.38;;;0.36;100.00
7297;BME280;40758;54.038;11.684;2023-02-04T08:04:05;103349.66;;;0.46;100.00
7297;BME280;40758;54.038;11.684;2023-02-04T08:06:35;103346.13;;;0.44;100.00
7297;BME280;40758;54.038;11.684;2023-02-04T08:09:04;103364.66;;;0.42;100.00
7297;BME280;40758;54.038;11.684;2023-02-04T08:11:32;103371.72;;;0.42;100.00
7297;BME280;40758;54.038;11.684;2023-02-04T08:14:01;103361.13;;;0.42;100.00
7297;BME280;40758;54.038;11.684;2023-02-04T08:16:29;103375.22;;;0.50;100.00
7297;BME280;40758;54.038;11.684;2023-02-04T08:18:57;103375.25;;;0.65;100.00
7297;BME280;40758;54.038;11.684;2023-02-04T08:21:26;103377.91;;;0.74;100.00
7297;BME280;40758;54.038;11.684;2023-02-04T08:23:57;103367.28;;;0.85;100.00
7297;BME280;40758;54.038;11.684;2023-02-04T08:26:26;103377.88;;;0.98;100.00
7297;BME280;40758;54.038;11.684;2023-02-04T08:28:54;103367.22;;;1.19;100.00
7297;BME280;40758;54.038;11.684;2023-02-04T08:31:23;103376.84;;;1.43;100.00
7297;BME280;40758;54.038;11.684;2023-02-04T08:33:52;103377.72;;;1.53;100.00
7297;BME280;40758;54.038;11.684;2023-02-04T08:36:21;103382.94;;;1.71;100.00
7297;BME280;40758;54.038;11.684;2023-02-04T08:38:50;103388.13;;;1.92;100.00
7297;BME280;40758;54.038;11.684;2023-02-04T08:41:19;103388.06;;;2.04;100.00
7297;BME280;40758;54.038;11.684;2023-02-04T08:43:48;103393.38;;;2.08;100.00
7297;BME280;40758;54.038;11.684;2023-02-04T08:46:16;103388.09;;;1.98;100.00
7297;BME280;40758;54.038;11.684;2023-02-04T08:48:45;103388.16;;;1.89;100.00
7297;BME280;40758;54.038;11.684;2023-02-04T08:51:13;103388.09;;;1.98;100.00
7297;BME280;40758;54.038;11.684;2023-02-04T08:53:43;103391.53;;;2.20;100.00
7297;BME280;40758;54.038;11.684;2023-02-04T08:56:12;103381.38;;;2.72;100.00
7297;BME280;40758;54.038;11.684;2023-02-04T08:58:44;103389.72;;;3.28;100.00
7297;BME280;40758;54.038;11.684;2023-02-04T09:01:12;103389.31;;;3.64;100.00
7297;BME280;40758;54.038;11.684;2023-02-04T09:03:41;103392.56;;;3.86;100.00
7297;BME280;40758;54.038;11.684;2023-02-04T09:06:10;103392.81;;;3.66;100.00
7297;BME280;40758;54.038;11.684;2023-02-04T09:08:38;103395.72;;;4.15;100.00
7297;BME280;40758;54.038;11.684;2023-02-04T09:11:07;103394.72;;;4.22;100.00
7297;BME280;40758;54.038;11.684;2023-02-04T09:13:36;103391.38;;;4.08;100.00
7297;BME280;40758;54.038;11.684;2023-02-04T09:16:06;103390.63;;;3.98;100.00
7297;BME280;40758;54.038;11.684;2023-02-04T09:18:35;103383.28;;;4.17;100.00
7297;BME280;40758;54.038;11.684;2023-02-04T09:21:04;103386.03;;;4.08;100.00
7297;BME280;40758;54.038;11.684;2023-02-04T09:23:32;103396.47;;;4.80;100.00
7297;BME280;40758;54.038;11.684;2023-02-04T09:26:01;103388.59;;;4.74;100.00
7297;BME280;40758;54.038;11.684;2023-02-04T09:28:30;103383.09;;;4.83;100.00
7297;BME280;40758;54.038;11.684;2023-02-04T09:31:00;103384.22;;;5.19;100.00
7297;BME280;40758;54.038;11.684;2023-02-04T09:33:32;103384.16;;;5.23;100.00
7297;BME280;40758;54.038;11.684;2023-02-04T09:36:01;103384.34;;;6.00;99.11
7297;BME280;40758;54.038;11.684;2023-02-04T09:38:30;103375.41;;;5.61;95.36
7297;BME280;40758;54.038;11.684;2023-02-04T09:41:03;103375.44;;;5.60;92.68
7297;BME280;40758;54.038;11.684;2023-02-04T09:43:36;103373.81;;;5.94;90.51
7297;BME280;40758;54.038;11.684;2023-02-04T09:46:08;103375.78;;;6.25;89.36
7297;BME280;40758;54.038;11.684;2023-02-04T09:48:43;103371.94;;;6.73;86.51
7297;BME280;40758;54.038;11.684;2023-02-04T09:51:17;103375.59;;;6.69;83.76
7297;BME280;40758;54.038;11.684;2023-02-04T09:53:47;103386.50;;;5.83;82.87
7297;BME280;40758;54.038;11.684;2023-02-04T09:56:16;103390.53;;;5.61;82.71
7297;BME280;40758;54.038;11.684;2023-02-04T09:58:45;103405.06;;;4.97;84.29
7297;BME280;40758;54.038;11.684;2023-02-04T10:01:17;103406.81;;;5.92;84.67
7297;BME280;40758;54.038;11.684;2023-02-04T10:03:48;103393.59;;;6.24;83.05
7297;BME280;40758;54.038;11.684;2023-02-04T10:06:20;103393.88;;;6.86;81.94
7297;BME280;40758;54.038;11.684;2023-02-04T10:08:50;103399.78;;;6.99;81.16
7297;BME280;40758;54.038;11.684;2023-02-04T10:11:21;103400.72;;;7.62;80.06
7297;BME280;40758;54.038;11.684;2023-02-04T10:13:53;103403.84;;;8.37;78.53
7297;BME280;40758;54.038;11.684;2023-02-04T10:16:24;103399.03;;;8.48;75.93
7297;BME280;40758;54.038;11.684;2023-02-04T10:19:02;103402.41;;;8.25;75.18
7297;BME280;40758;54.038;11.684;2023-02-04T10:21:33;103405.50;;;8.41;73.72
7297;BME280;40758;54.038;11.684;2023-02-04T10:24:09;103418.66;;;8.19;72.46
7297;BME280;40758;54.038;11.684;2023-02-04T10:26:39;103416.03;;;7.57;71.85
7297;BME280;40758;54.038;11.684;2023-02-04T10:29:15;103412.09;;;8.00;71.93
7297;BME280;40758;54.038;11.684;2023-02-04T10:31:46;103421.34;;;7.26;71.80
7297;BME280;40758;54.038;11.684;2023-02-04T10:34:18;103444.88;;;6.78;72.95
7297;BME280;40758;54.038;11.684;2023-02-04T10:36:49;103435.44;;;6.62;73.47
7297;BME280;40758;54.038;11.684;2023-02-04T10:39:21;103431.72;;;6.69;72.91
7297;BME280;40758;54.038;11.684;2023-02-04T10:41:52;103427.91;;;7.15;72.76
7297;BME280;40758;54.038;11.684;2023-02-04T10:44:28;103421.16;;;7.96;71.58
7297;BME280;40758;54.038;11.684;2023-02-04T10:47:01;103409.03;;;8.13;68.99
7297;BME280;40758;54.038;11.684;2023-02-04T10:49:32;103414.59;;;8.06;68.73
7297;BME280;40758;54.038;11.684;2023-02-04T10:52:05;103419.19;;;7.07;69.21
7297;BME280;40758;54.038;11.684;2023-02-04T10:54:41;103423.09;;;6.58;69.67
7297;BME280;40758;54.038;11.684;2023-02-04T10:57:17;103433.81;;;6.92;70.73
7297;BME280;40758;54.038;11.684;2023-02-04T10:59:50;103433.19;;;6.44;71.05
7297;BME280;40758;54.038;11.684;2023-02-04T11:02:41;103438.47;;;6.08;71.31
7297;BME280;40758;54.038;11.684;2023-02-04T11:05:15;103438.25;;;6.18;72.13
7297;BME280;40758;54.038;11.684;2023-02-04T11:07:48;103435.03;;;6.42;71.58
7297;BME280;40758;54.038;11.684;2023-02-04T11:10:19;103439.09;;;6.95;71.50
7297;BME280;40758;54.038;11.684;2023-02-04T11:13:01;103429.69;;;6.42;71.38
7297;BME280;40758;54.038;11.684;2023-02-04T11:15:43;103434.19;;;7.46;70.72
7297;BME280;40758;54.038;11.684;2023-02-04T11:18:28;103423.19;;;7.23;70.61
7297;BME280;40758;54.038;11.684;2023-02-04T11:20:58;103414.84;;;7.35;68.99
7297;BME280;40758;54.038;11.684;2023-02-04T11:23:35;103415.75;;;7.02;68.71
7297;BME280;40758;54.038;11.684;2023-02-04T11:26:08;103425.81;;;6.55;69.44
7297;BME280;40758;54.038;11.684;2023-02-04T11:28:46;103431.38;;;6.46;69.97
7297;BME280;40758;54.038;11.684;2023-02-04T11:31:41;103432.13;;;6.53;69.56
7297;BME280;40758;54.038;11.684;2023-02-04T11:34:26;103436.00;;;7.10;69.43
7297;BME280;40758;54.038;11.684;2023-02-04T11:37:14;103442.63;;;7.29;68.84
7297;BME280;40758;54.038;11.684;2023-02-04T11:39:45;103443.28;;;7.39;68.65
7297;BME280;40758;54.038;11.684;2023-02-04T11:42:20;103444.91;;;6.75;68.52
7297;BME280;40758;54.038;11.684;2023-02-04T11:44:54;103454.22;;;6.59;70.53
7297;BME280;40758;54.038;11.684;2023-02-04T11:47:27;103459.97;;;6.01;69.71
7297;BME280;40758;54.038;11.684;2023-02-04T11:50:03;103450.19;;;6.41;70.46
7297;BME280;40758;54.038;11.684;2023-02-04T11:52:35;103444.88;;;6.78;69.21
7297;BME280;40758;54.038;11.684;2023-02-04T11:55:04;103452.63;;;6.50;70.15
7297;BME280;40758;54.038;11.684;2023-02-04T11:57:38;103448.81;;;7.33;70.55
7297;BME280;40758;54.038;11.684;2023-02-04T12:00:13;103433.09;;;7.21;68.02
7297;BME280;40758;54.038;11.684;2023-02-04T12:02:49;103443.13;;;7.11;68.77
7297;BME280;40758;54.038;11.684;2023-02-04T12:05:19;103450.88;;;6.86;68.80
7297;BME280;40758;54.038;11.684;2023-02-04T12:07:49;103462.56;;;7.18;69.67
7297;BME280;40758;54.038;11.684;2023-02-04T12:10:25;103468.53;;;6.94;69.42
7297;BME280;40758;54.038;11.684;2023-02-04T12:12:55;103460.31;;;6.66;69.49
7297;BME280;40758;54.038;11.684;2023-02-04T12:15:32;103464.88;;;6.22;69.99
7297;BME280;40758;54.038;11.684;2023-02-04T12:18:05;103463.53;;;6.41;69.95
7297;BME280;40758;54.038;11.684;2023-02-04T12:20:35;103479.88;;;6.28;70.90
7297;BME280;40758;54.038;11.684;2023-02-04T12:23:05;103483.72;;;6.91;70.74
7297;BME280;40758;54.038;11.684;2023-02-04T12:25:35;103481.19;;;7.55;70.28
7297;BME280;40758;54.038;11.684;2023-02-04T12:28:07;103468.56;;;7.91;68.48
7297;BME280;40758;54.038;11.684;2023-02-04T12:30:35;103445.28;;;7.31;66.80
7297;BME280;40758;54.038;11.684;2023-02-04T12:33:04;103464.75;;;7.02;68.34
7297;BME280;40758;54.038;11.684;2023-02-04T12:35:33;103463.41;;;7.85;68.45
7297;BME280;40758;54.038;11.684;2023-02-04T12:38:02;103455.16;;;7.61;66.54
7297;BME280;40758;54.038;11.684;2023-02-04T12:40:32;103461.06;;;7.72;66.81
7297;BME280;40758;54.038;11.684;2023-02-04T12:43:01;103452.84;;;7.48;66.05
7297;BME280;40758;54.038;11.684;2023-02-04T12:45:29;103462.69;;;7.13;65.65
7297;BME280;40758;54.038;11.684;2023-02-04T12:47:58;103468.72;;;6.07;66.40
7297;BME280;40758;54.038;11.684;2023-02-04T12:50:27;103496.69;;;4.87;68.11
7297;BME280;40758;54.038;11.684;2023-02-04T12:52:57;103503.47;;;5.06;70.09
7297;BME280;40758;54.038;11.684;2023-02-04T12:55:27;103520.09;;;4.64;72.16
7297;BME280;40758;54.038;11.684;2023-02-04T12:57:58;103518.91;;;4.86;72.65
7297;BME280;40758;54.038;11.684;2023-02-04T13:00:26;103515.56;;;4.73;72.62
7297;BME280;40758;54.038;11.684;2023-02-04T13:02:56;103515.09;;;4.44;72.70
7297;BME280;40758;54.038;11.684;2023-02-04T13:05:26;103526.16;;;4.07;73.52